Terminal Aerodrome Forecast
Issued by NWS Topeka, KS

Home | Current Version | Previous Version | Graphics & Text | Print | Product List | Glossary On
Versions: 1 2 3 4 5 6 7 8 9 10 11 12 13 14 15 16 17 18 19 20 21 22 23 24 25 26
000
FTUS43 KTOP 191743
TAFTOP
TAF
KTOP 191743Z 1918/2018 12007KT P6SM FEW040 SCT100
     FM192200 10007KT P6SM VCTS BKN035CB OVC060
      TEMPO 1923/2002 3SM TSRA BKN030CB
     FM200300 35006KT P6SM OVC035
     FM200800 28006KT P6SM OVC015
     FM201100 28006KT P6SM OVC008
     FM201300 31006KT P6SM VCSH OVC008=

USA.gov is the U.S. government's official web portal to all federal, state and local government web resources and services.